Greenfield, United Kingdom
Current Conditions -  °F | °C
As of 6:20 PM on Thursday 29 Jan 2015 (Local Time) from EGNR Reporting Station
Snow Showers Snow Showers  
Wind Chill: 30°   Ceiling: 3800
Heat Index: 39°   Visibility: 6mi
Dew Point: 34°   Wind: 20mph
Humidity: 81%   Direction: 300°WNW
Pressure: 28.85"   Gusts: 32mph
Location:  53.28°N, 3.22°W
Report Text: EGNR 291820Z 30017G28KT 9999 -SHSNRA SCT029 BKN038 04/01 Q0977
Loading
Personal Weather Stations






























Interactive Weather Map New forecast layout! Learn more

10-Day Weather Forecast

Advertisements
Track Severe Weather on mobile